Time;durP1;ratioP1;P1;durP2;ratioP2;P2;SDS_P1;SDS_P2;PMS_P1;PMS_P2;Temp;Humidity;BMP_temperature;BMP_pressure;BME280_temperature;BME280_humidity;BME280_pressure;Samples;Min_cycle;Max_cycle;Signal;HPM_P1;HPM_P2
2022/01/30 00:01:15;;;;;;;11.18;4.90;;;;;;;-9.03;100.00;91144.22;5086282;28;20039;-67
2022/01/30 00:03:41;;;;;;;12.80;5.05;;;;;;;-9.24;100.00;91126.22;5071934;28;20129;-67
2022/01/30 00:06:06;;;;;;;8.45;4.72;;;;;;;-9.18;100.00;91144.28;5071765;28;20053;-67
2022/01/30 00:08:32;;;;;;;9.60;5.10;;;;;;;-9.23;100.00;91145.84;5073866;28;20029;-67
2022/01/30 00:11:05;;;;;;;17.83;7.43;;;;;;;-9.32;100.00;91134.06;5092110;28;20067;-67
2022/01/30 00:13:31;;;;;;;15.52;6.95;;;;;;;-9.38;100.00;91131.25;5092172;28;20421;-67
2022/01/30 00:15:57;;;;;;;16.33;6.82;;;;;;;-9.38;100.00;91120.16;5092083;28;20032;-67
2022/01/30 00:24:12;;;;;;;18.40;8.18;;;;;;;-9.49;100.00;91102.63;5091817;28;20125;-67
2022/01/30 00:26:39;;;;;;;18.80;9.52;;;;;;;-9.49;100.00;91089.75;5091843;28;20024;-67
2022/01/30 00:29:05;;;;;;;25.27;9.13;;;;;;;-9.39;100.00;91097.97;5091866;28;20500;-67
2022/01/30 00:31:35;;;;;;;12.73;6.00;;;;;;;-9.47;100.00;91086.00;5090513;28;20032;-67
2022/01/30 00:34:01;;;;;;;13.80;5.00;;;;;;;-9.38;100.00;91077.19;5091584;28;20031;-67
2022/01/30 00:36:30;;;;;;;10.18;4.75;;;;;;;-9.38;100.00;91066.09;5091609;28;20028;-67
2022/01/30 00:39:00;;;;;;;10.35;5.05;;;;;;;-9.34;100.00;91058.78;5090309;28;20024;-67
2022/01/30 00:41:26;;;;;;;12.55;6.93;;;;;;;-9.33;100.00;91060.38;5091601;28;20420;-67
2022/01/30 00:43:51;;;;;;;15.52;6.22;;;;;;;-9.41;100.00;91038.94;5091588;28;20107;-67
2022/01/30 00:46:17;;;;;;;12.75;7.25;;;;;;;-9.21;100.00;91045.97;5091260;28;20066;-67
2022/01/30 00:48:43;;;;;;;24.08;9.90;;;;;;;-9.23;100.00;91037.66;5091551;28;20089;-67
2022/01/30 00:51:09;;;;;;;19.80;9.43;;;;;;;-9.22;100.00;91046.97;5091496;28;20024;-67
2022/01/30 00:53:34;;;;;;;22.75;10.27;;;;;;;-9.32;100.00;91025.91;5091313;28;20113;-67
2022/01/30 00:56:00;;;;;;;15.23;5.88;;;;;;;-9.37;100.00;91013.59;5091388;28;20512;-67
2022/01/30 00:58:25;;;;;;;10.07;5.78;;;;;;;-9.50;100.00;91011.72;5091358;28;20109;-67
2022/01/30 01:00:51;;;;;;;16.25;7.25;;;;;;;-9.60;100.00;91002.75;5091303;28;20066;-67
2022/01/30 01:03:17;;;;;;;19.00;8.52;;;;;;;-9.65;100.00;91003.28;5091186;28;20104;-67
2022/01/30 01:05:44;;;;;;;16.90;8.30;;;;;;;-9.64;100.00;91002.31;5091109;28;20097;-67
2022/01/30 01:08:19;;;;;;;19.83;8.48;;;;;;;-9.55;100.00;90997.81;5091141;28;20499;-67
2022/01/30 01:10:50;;;;;;;23.67;10.00;;;;;;;-9.62;100.00;91005.53;5091193;28;20028;-67
2022/01/30 01:23:50;;;;;;;61.83;19.95;;;;;;;-9.69;100.00;90996.94;5090959;28;20020;-67
2022/01/30 01:26:16;;;;;;;38.83;16.17;;;;;;;-9.67;100.00;90992.38;5089730;28;20024;-67
2022/01/30 01:28:43;;;;;;;32.45;15.60;;;;;;;-9.51;100.00;91002.41;5091107;28;20024;-67
2022/01/30 01:31:08;;;;;;;29.48;13.43;;;;;;;-9.44;100.00;90989.59;5091017;28;20562;-67
2022/01/30 01:36:03;;;;;;;61.13;18.85;;;;;;;-9.46;100.00;90979.47;5090972;28;20063;-67
2022/01/30 01:38:28;;;;;;;41.92;15.20;;;;;;;-9.51;100.00;90976.66;5090810;28;20060;-67
2022/01/30 01:40:55;;;;;;;25.55;8.80;;;;;;;-9.28;100.00;90975.63;5090853;28;20024;-67
2022/01/30 01:43:24;;;;;;;22.13;10.13;;;;;;;-9.10;100.00;90965.59;5090778;28;20024;-67
2022/01/30 01:45:52;;;;;;;18.02;6.85;;;;;;;-8.88;100.00;90961.91;5090862;28;20450;-67
2022/01/30 01:48:18;;;;;;;21.15;8.70;;;;;;;-8.67;100.00;90958.44;5090797;28;20028;-67
2022/01/30 01:50:52;;;;;;;15.50;6.30;;;;;;;-8.46;100.00;90965.22;5090891;28;20085;-67
2022/01/30 01:53:24;;;;;;;15.18;7.13;;;;;;;-8.46;100.00;90955.69;5090653;28;20024;-67
2022/01/30 01:55:50;;;;;;;11.80;6.55;;;;;;;-8.35;100.00;90967.25;5090724;28;20039;-67
2022/01/30 01:58:16;;;;;;;16.52;8.25;;;;;;;-8.25;100.00;90946.97;5091144;28;20522;-67
2022/01/30 02:00:41;;;;;;;17.92;8.30;;;;;;;-8.19;100.00;90953.13;5094665;28;20099;-67
2022/01/30 02:03:09;;;;;;;19.67;6.22;;;;;;;-8.01;100.00;90943.03;5094530;28;20024;-67
2022/01/30 02:05:36;;;;;;;18.60;8.75;;;;;;;-8.10;100.00;90939.03;5094491;28;20087;-67
2022/01/30 02:10:46;;;;;;;17.08;6.80;;;;;;;-8.15;100.00;90931.09;5094449;28;20063;-67
2022/01/30 02:25:02;;;;;;;8.68;4.57;;;;;;;-7.74;100.00;90919.75;5094104;28;20127;-67
2022/01/30 02:27:34;;;;;;;16.52;7.70;;;;;;;-7.77;100.00;90927.91;5094239;28;20020;-67
2022/01/30 02:30:00;;;;;;;13.05;5.40;;;;;;;-7.89;100.00;90910.47;5094100;28;20048;-67
2022/01/30 02:32:26;;;;;;;12.35;5.78;;;;;;;-7.93;100.00;90918.78;5093970;28;20093;-67
2022/01/30 02:34:52;;;;;;;14.10;6.18;;;;;;;-7.98;100.00;90897.94;5093970;28;20028;-67
2022/01/30 02:37:18;;;;;;;21.73;7.32;;;;;;;-7.97;100.00;90890.00;5093995;28;20089;-67
2022/01/30 02:39:44;;;;;;;10.88;4.97;;;;;;;-7.78;100.00;90896.13;5093909;28;20870;-67
2022/01/30 02:42:17;;;;;;;14.27;5.05;;;;;;;-7.76;100.00;90888.97;5093733;28;20028;-67
2022/01/30 02:44:51;;;;;;;;;;;;;;;-7.75;100.00;90880.25;5094447;28;20403;-67
2022/01/30 02:47:36;;;;;;;;;;;;;;;-7.74;100.00;90889.56;5094205;28;20397;-67
2022/01/30 02:50:14;;;;;;;11.88;5.05;;;;;;;-7.83;100.00;90888.22;5093700;28;19923;-67
2022/01/30 02:52:42;;;;;;;13.48;5.60;;;;;;;-7.91;100.00;90890.97;5093507;28;20031;-67
2022/01/30 02:55:10;;;;;;;11.65;5.57;;;;;;;-8.04;100.00;90896.19;5093585;28;20111;-67
2022/01/30 02:57:36;;;;;;;13.63;6.30;;;;;;;-8.15;100.00;90887.25;5093613;28;20458;-67
2022/01/30 03:00:04;;;;;;;20.52;8.25;;;;;;;-8.09;100.00;90876.09;5093522;28;20056;-67
2022/01/30 03:02:29;;;;;;;14.85;6.90;;;;;;;-8.16;100.00;90877.91;5093628;28;20476;-67
2022/01/30 03:04:55;;;;;;;11.07;5.97;;;;;;;-8.01;100.00;90875.13;5092064;28;20076;-68
2022/01/30 03:07:20;;;;;;;9.95;5.15;;;;;;;-7.87;100.00;90856.84;5091668;28;20118;-67
2022/01/30 03:09:46;;;;;;;11.95;6.72;;;;;;;-7.79;100.00;90855.81;5083242;28;20513;-67
2022/01/30 03:12:11;;;;;;;9.98;5.38;;;;;;;-7.74;100.00;90845.69;5072839;28;20020;-67
2022/01/30 03:14:37;;;;;;;14.95;4.72;;;;;;;-7.66;100.00;90847.25;5093126;28;20481;-67
2022/01/30 03:17:03;;;;;;;12.63;5.18;;;;;;;-7.56;100.00;90843.28;5093140;28;20064;-67
2022/01/30 03:19:28;;;;;;;10.68;5.72;;;;;;;-7.56;100.00;90853.59;5093139;28;20020;-67
2022/01/30 03:21:54;;;;;;;12.60;6.75;;;;;;;-7.61;100.00;90852.59;5093027;28;20032;-67
2022/01/30 03:24:19;;;;;;;16.80;6.97;;;;;;;-7.62;100.00;90849.22;5093056;28;20081;-67
2022/01/30 03:26:45;;;;;;;15.70;8.90;;;;;;;-7.64;100.00;90842.69;5093067;28;20031;-67
2022/01/30 03:29:10;;;;;;;16.90;8.30;;;;;;;-7.66;100.00;90842.88;5076258;28;20466;-67
2022/01/30 03:31:38;;;;;;;14.27;6.85;;;;;;;-7.63;100.00;90852.81;5072690;28;20028;-67
2022/01/30 03:34:07;;;;;;;12.02;6.63;;;;;;;-7.68;100.00;90846.69;5072514;28;20033;-67
2022/01/30 03:36:32;;;;;;;16.40;7.40;;;;;;;-7.74;100.00;90842.31;5072581;28;20028;-67
2022/01/30 03:38:58;;;;;;;11.38;6.53;;;;;;;-7.79;100.00;90848.06;5072497;28;20466;-67
2022/01/30 03:41:25;;;;;;;13.75;6.75;;;;;;;-7.80;100.00;90848.28;5072504;28;20055;-67
2022/01/30 03:43:51;;;;;;;17.05;6.38;;;;;;;-7.91;100.00;90834.19;5072337;28;20060;-67
2022/01/30 03:46:18;;;;;;;12.55;6.45;;;;;;;-7.77;100.00;90834.97;5072411;28;20056;-67
2022/01/30 03:48:44;;;;;;;11.95;6.03;;;;;;;-7.62;100.00;90844.06;5072637;28;20064;-67
2022/01/30 03:51:10;;;;;;;8.00;4.22;;;;;;;-7.61;100.00;90845.66;5072205;28;20482;-67
2022/01/30 03:53:36;;;;;;;8.50;4.60;;;;;;;-7.67;100.00;90838.72;5070759;28;20028;-67
2022/01/30 03:56:02;;;;;;;12.15;5.72;;;;;;;-7.62;100.00;90832.94;5072248;28;20017;-67
2022/01/30 03:58:27;;;;;;;9.88;6.07;;;;;;;-7.64;100.00;90851.22;5072118;28;20111;-67
2022/01/30 04:00:53;;;;;;;10.13;5.97;;;;;;;-7.71;100.00;90832.38;5072057;28;20150;-67
2022/01/30 04:03:19;;;;;;;8.68;4.72;;;;;;;-7.76;100.00;90845.09;5072214;28;20076;-67
2022/01/30 04:05:44;;;;;;;11.25;5.30;;;;;;;-7.77;100.00;90856.41;5071889;28;20197;-67
2022/01/30 04:08:10;;;;;;;11.65;5.63;;;;;;;-7.81;100.00;90870.72;5071928;28;20504;-67
2022/01/30 04:10:37;;;;;;;14.98;8.57;;;;;;;-7.92;100.00;90866.16;5071819;28;20028;-67
2022/01/30 04:13:02;;;;;;;11.23;6.15;;;;;;;-8.02;100.00;90866.59;5072026;28;20029;-67
2022/01/30 04:15:28;;;;;;;11.82;6.68;;;;;;;-8.10;100.00;90868.56;5071811;28;20021;-67
2022/01/30 04:17:54;;;;;;;11.95;6.40;;;;;;;-7.96;100.00;90875.31;5070490;28;20036;-67
2022/01/30 04:20:20;;;;;;;14.75;6.85;;;;;;;-7.95;100.00;90866.56;5070499;28;20094;-67
2022/01/30 04:22:45;;;;;;;14.75;5.63;;;;;;;-7.90;100.00;90866.75;5070915;28;20107;-67
2022/01/30 04:25:11;;;;;;;10.07;5.20;;;;;;;-7.79;100.00;90873.09;5071701;28;20036;-67
2022/01/30 04:27:36;;;;;;;12.75;6.95;;;;;;;-7.75;100.00;90877.66;5071714;28;20025;-67
2022/01/30 04:30:04;;;;;;;13.43;5.95;;;;;;;-7.69;100.00;90869.13;5071662;28;20028;-67
2022/01/30 04:32:30;;;;;;;16.40;7.85;;;;;;;-7.63;100.00;90852.00;5071452;28;20518;-67
2022/01/30 04:34:58;;;;;;;18.35;8.20;;;;;;;-7.35;100.00;90872.41;5071514;28;20048;-67
2022/01/30 04:37:35;;;;;;;13.25;7.35;;;;;;;-7.39;100.00;90874.63;5071500;28;20032;-67
2022/01/30 04:54:20;;;;;;;16.73;7.43;;;;;;;-7.51;100.00;90847.81;5071143;28;20023;-67
2022/01/30 05:04:24;;;;;;;11.15;5.20;;;;;;;-8.07;100.00;90813.97;5070505;28;20490;-67
2022/01/30 05:09:42;;;;;;;11.95;4.93;;;;;;;-8.30;100.00;90758.44;5047225;28;20478;-67
2022/01/30 05:12:10;;;;;;;13.50;6.07;;;;;;;-8.32;100.00;90746.75;5070696;28;20036;-67
2022/01/30 05:14:37;;;;;;;11.70;5.28;;;;;;;-8.06;100.00;90738.13;5070651;28;20492;-66
2022/01/30 05:17:04;;;;;;;17.63;7.63;;;;;;;-7.95;100.00;90724.59;5070877;28;20497;-67
2022/01/30 05:19:31;;;;;;;16.98;6.95;;;;;;;-7.86;100.00;90719.03;5070863;28;20513;-67
2022/01/30 05:21:57;;;;;;;18.48;7.57;;;;;;;-7.89;100.00;90726.34;5070787;28;20039;-67
2022/01/30 05:24:22;;;;;;;15.93;7.15;;;;;;;-7.95;100.00;90750.41;5070859;28;20024;-67
2022/01/30 05:26:49;;;;;;;20.50;8.85;;;;;;;-7.99;100.00;90750.03;5070884;28;20441;-67
2022/01/30 05:29:15;;;;;;;21.00;9.57;;;;;;;-8.01;100.00;90741.72;5070703;28;20121;-67
2022/01/30 05:31:44;;;;;;;35.45;12.27;;;;;;;-8.03;100.00;90761.78;5070693;28;20043;-67
2022/01/30 05:34:10;;;;;;;24.92;10.65;;;;;;;-7.93;100.00;90774.22;5074303;28;20029;-67
2022/01/30 05:36:40;;;;;;;19.70;10.60;;;;;;;-7.95;100.00;90756.38;5074863;28;20115;-67
2022/01/30 05:39:06;;;;;;;12.45;6.70;;;;;;;-7.47;100.00;90731.94;5074786;28;20032;-67
2022/01/30 05:41:32;;;;;;;20.05;9.77;;;;;;;-7.21;100.00;90747.31;5074732;28;20032;-67
2022/01/30 05:44:10;;;;;;;14.63;6.07;;;;;;;-7.15;100.00;90740.53;5074630;28;20032;-67
2022/01/30 05:46:43;;;;;;;19.63;9.85;;;;;;;-7.06;100.00;90736.69;5074879;28;20083;-67
2022/01/30 05:49:10;;;;;;;25.95;10.73;;;;;;;-7.12;100.00;90715.03;5074625;28;20020;-67
2022/01/30 05:51:35;;;;;;;19.45;8.88;;;;;;;-7.01;100.00;90706.63;5081844;28;20421;-67
2022/01/30 05:54:01;;;;;;;21.27;10.52;;;;;;;-6.84;100.00;90722.41;5074381;28;20082;-67
2022/01/30 05:56:26;;;;;;;52.17;16.25;;;;;;;-6.75;100.00;90721.16;5094731;28;20106;-67
2022/01/30 05:58:52;;;;;;;16.65;5.50;;;;;;;-6.43;100.00;90723.69;5094712;28;20035;-67
2022/01/30 06:01:18;;;;;;;21.95;9.55;;;;;;;-6.17;100.00;90730.41;5074436;28;20028;-67
2022/01/30 06:03:43;;;;;;;14.20;7.97;;;;;;;-5.91;100.00;90742.31;5074242;28;20078;-67
2022/01/30 06:06:09;;;;;;;15.50;7.80;;;;;;;-5.85;100.00;90742.19;5077644;28;20052;-67
2022/01/30 06:11:10;;;;;;;14.50;8.57;;;;;;;-5.26;100.00;90792.56;5094483;28;20028;-67
2022/01/30 06:13:36;;;;;;;20.17;11.70;;;;;;;-4.96;100.00;90784.81;5094334;28;20069;-67
2022/01/30 06:16:03;;;;;;;17.20;10.10;;;;;;;-4.79;100.00;90766.81;5094261;28;20032;-67
2022/01/30 06:18:28;;;;;;;11.25;6.07;;;;;;;-4.47;100.00;90769.16;5094318;28;20111;-67
2022/01/30 06:20:55;;;;;;;11.45;4.40;;;;;;;-4.32;100.00;90767.72;5094357;28;20060;-67
2022/01/30 06:23:26;;;;;;;10.48;6.15;;;;;;;-4.23;96.20;90760.41;5094178;28;20028;-67
2022/01/30 06:25:53;;;;;;;14.25;7.75;;;;;;;-4.05;93.33;90772.50;5094199;28;20115;-67
2022/01/30 06:28:18;;;;;;;9.32;4.95;;;;;;;-3.88;89.91;90786.41;5094418;28;20060;-67
2022/01/30 06:30:44;;;;;;;22.88;9.35;;;;;;;-3.89;88.36;90786.63;5094544;28;20055;-67
2022/01/30 06:33:10;;;;;;;22.13;10.30;;;;;;;-3.77;88.42;90790.03;5094283;28;20024;-67
2022/01/30 06:35:35;;;;;;;26.75;11.88;;;;;;;-3.58;87.52;90798.50;5094128;28;20031;-67
2022/01/30 06:38:04;;;;;;;34.90;13.77;;;;;;;-3.33;87.89;90786.78;5092679;28;20057;-67
2022/01/30 06:40:30;;;;;;;17.75;9.00;;;;;;;-3.18;86.72;90798.53;5093903;28;20074;-67
2022/01/30 06:42:56;;;;;;;17.73;7.55;;;;;;;-3.28;88.05;90786.13;5094157;28;20073;-67
2022/01/30 06:45:22;;;;;;;7.85;5.15;;;;;;;-3.50;89.21;90791.13;5085274;28;20032;-70
2022/01/30 06:47:48;;;;;;;11.23;5.70;;;;;;;-3.50;88.68;90800.72;5073412;28;20028;-69
2022/01/30 06:50:14;;;;;;;10.68;5.85;;;;;;;-3.52;87.39;90798.38;5073228;28;20032;-67
2022/01/30 06:52:40;;;;;;;10.30;5.00;;;;;;;-3.45;84.77;90795.66;5072942;28;20502;-67
2022/01/30 06:55:07;;;;;;;13.43;7.35;;;;;;;-3.43;84.07;90791.81;5073343;28;20103;-67
2022/01/30 06:57:33;;;;;;;26.83;11.50;;;;;;;-3.30;83.84;90790.78;5073406;28;20501;-67
2022/01/30 06:59:59;;;;;;;27.67;12.02;;;;;;;-3.33;84.51;90789.41;5072887;28;20060;-67
2022/01/30 07:02:25;;;;;;;35.25;16.00;;;;;;;-3.18;84.91;90778.50;5089259;28;20028;-69
2022/01/30 07:04:50;;;;;;;25.80;10.00;;;;;;;-3.10;82.38;90785.19;5093215;28;20044;-68
2022/01/30 07:07:16;;;;;;;33.92;15.02;;;;;;;-3.02;81.99;90777.00;5092978;28;20028;-69
2022/01/30 07:09:42;;;;;;;17.63;7.90;;;;;;;-2.86;79.68;90794.50;5093292;28;20032;-69
2022/01/30 07:12:08;;;;;;;18.08;8.93;;;;;;;-2.79;79.39;90776.16;5093245;28;20027;-68
2022/01/30 07:14:33;;;;;;;22.40;9.63;;;;;;;-2.73;79.60;90785.63;5086862;28;20510;-68
2022/01/30 07:16:59;;;;;;;30.45;12.73;;;;;;;-2.55;79.46;90789.84;5072904;28;20090;-68
2022/01/30 07:19:25;;;;;;;23.80;11.25;;;;;;;-2.52;78.70;90786.78;5072995;28;20032;-68
2022/01/30 07:21:51;;;;;;;31.85;14.10;;;;;;;-2.59;78.14;90779.13;5072643;28;20025;-68
2022/01/30 07:24:17;;;;;;;22.80;10.40;;;;;;;-2.52;76.26;90765.97;5072508;28;20500;-68
2022/01/30 07:26:42;;;;;;;18.27;9.52;;;;;;;-2.46;75.37;90755.38;5072217;28;20107;-68
2022/01/30 07:29:10;;;;;;;23.10;12.38;;;;;;;-2.37;74.57;90753.16;5072761;28;20038;-67
2022/01/30 07:31:35;;;;;;;19.77;9.05;;;;;;;-2.19;73.43;90742.56;5072123;28;20446;-67
2022/01/30 07:34:01;;;;;;;15.85;8.05;;;;;;;-2.13;71.29;90730.38;5072458;28;20112;-66
2022/01/30 07:36:28;;;;;;;16.70;7.32;;;;;;;-2.01;70.56;90732.91;5072497;28;20040;-66
2022/01/30 07:38:54;;;;;;;11.57;5.82;;;;;;;-2.00;70.83;90732.66;5071833;28;20107;-67
2022/01/30 07:41:22;;;;;;;16.35;7.78;;;;;;;-1.97;71.16;90734.78;5072552;28;20561;-67
2022/01/30 07:43:48;;;;;;;20.05;9.15;;;;;;;-1.62;69.55;90737.13;5072462;28;20112;-68
2022/01/30 07:46:15;;;;;;;11.20;6.20;;;;;;;-1.49;69.88;90724.75;5071838;28;20128;-67
2022/01/30 07:48:40;;;;;;;10.02;5.07;;;;;;;-1.40;66.88;90725.94;5072247;28;20082;-67
2022/01/30 07:51:06;;;;;;;8.10;4.03;;;;;;;-1.46;65.35;90737.31;5070711;28;20032;-68
2022/01/30 07:53:32;;;;;;;17.30;8.77;;;;;;;-1.21;63.57;90733.22;5071720;28;20021;-67
2022/01/30 07:55:58;;;;;;;16.75;8.55;;;;;;;-0.99;61.50;90727.97;5071182;28;20025;-67
2022/01/30 07:58:24;;;;;;;23.63;10.15;;;;;;;-0.85;61.89;90727.59;5071909;28;20036;-68
2022/01/30 08:00:49;;;;;;;18.27;10.30;;;;;;;-0.41;58.92;90718.66;5071705;28;20040;-66
2022/01/30 08:03:15;;;;;;;66.97;30.40;;;;;;;-0.20;57.97;90724.06;5071616;28;20044;-68
2022/01/30 08:05:41;;;;;;;53.78;25.45;;;;;;;-0.01;56.77;90731.25;5071957;28;20079;-68
2022/01/30 08:08:07;;;;;;;27.58;14.35;;;;;;;0.11;56.64;90733.72;5071555;28;20024;-66
2022/01/30 08:10:34;;;;;;;20.02;10.63;;;;;;;0.10;56.05;90733.97;5071808;28;20056;-68
2022/01/30 08:13:00;;;;;;;12.63;7.15;;;;;;;0.05;55.80;90713.81;5071753;28;20108;-66
2022/01/30 08:15:26;;;;;;;6.63;4.82;;;;;;;0.19;55.75;90719.41;5071049;28;20120;-68
2022/01/30 08:17:52;;;;;;;5.18;3.55;;;;;;;0.20;55.56;90726.22;5071789;28;20127;-68
2022/01/30 08:20:18;;;;;;;3.88;2.80;;;;;;;-0.03;57.12;90732.56;5071873;28;20028;-67
2022/01/30 08:22:52;;;;;;;6.97;4.13;;;;;;;0.43;53.85;90720.59;5071154;28;20078;-66
2022/01/30 08:25:19;;;;;;;4.90;3.08;;;;;;;0.12;55.02;90716.97;5071681;28;20036;-67
2022/01/30 08:27:46;;;;;;;12.93;4.50;;;;;;;0.42;55.21;90737.34;5071421;28;20024;-67
2022/01/30 08:30:12;;;;;;;6.07;3.30;;;;;;;0.44;55.08;90724.78;5072084;28;20032;-67
2022/01/30 08:32:42;;;;;;;6.28;3.47;;;;;;;0.76;55.07;90716.06;5081823;28;20141;-66
2022/01/30 08:35:10;;;;;;;5.40;2.80;;;;;;;1.04;53.38;90717.50;5083867;28;20097;-67
2022/01/30 08:37:36;;;;;;;11.73;5.05;;;;;;;1.35;53.27;90674.63;5082031;28;20032;-69
2022/01/30 08:40:10;;;;;;;8.10;3.45;;;;;;;1.27;52.50;90703.97;5070892;28;20501;-66
2022/01/30 08:42:36;;;;;;;6.30;3.38;;;;;;;1.46;51.69;90694.56;5071263;28;20043;-65
2022/01/30 08:45:03;;;;;;;5.85;3.25;;;;;;;2.03;50.98;90687.53;5078461;28;20024;-66
2022/01/30 08:47:29;;;;;;;12.15;7.20;;;;;;;2.72;49.65;90686.13;5080180;28;20497;-64
2022/01/30 08:49:54;;;;;;;17.92;7.88;;;;;;;3.50;48.33;90681.09;5073506;28;20039;-64
2022/01/30 08:52:20;;;;;;;5.15;3.35;;;;;;;2.94;49.90;90695.25;5071091;28;20501;-68
2022/01/30 08:54:48;;;;;;;8.98;4.35;;;;;;;3.10;47.38;90680.22;5071176;28;20024;-68
2022/01/30 08:57:13;;;;;;;26.95;12.30;;;;;;;3.56;46.90;90685.25;5071240;28;20029;-67
2022/01/30 08:59:39;;;;;;;6.10;2.97;;;;;;;2.70;49.00;90691.66;5070739;28;20161;-66
2022/01/30 09:02:05;;;;;;;3.05;2.22;;;;;;;2.77;50.16;90692.16;5071113;28;20035;-67
2022/01/30 09:04:30;;;;;;;4.65;3.20;;;;;;;3.16;50.60;90700.19;5075639;28;20555;-69
2022/01/30 09:06:56;;;;;;;4.72;4.07;;;;;;;2.99;51.87;90689.19;5072521;28;20052;-70
2022/01/30 09:09:21;;;;;;;2.20;2.00;;;;;;;2.93;53.10;90703.41;5084430;28;20024;-69
2022/01/30 09:11:47;;;;;;;2.83;1.92;;;;;;;2.54;52.97;90683.03;5082564;28;20028;-68
2022/01/30 09:14:15;;;;;;;5.97;2.25;;;;;;;2.87;51.18;90699.22;5070401;28;20082;-68
2022/01/30 09:16:42;;;;;;;2.10;1.90;;;;;;;2.49;51.19;90696.16;5079062;28;20478;-66
2022/01/30 09:19:08;;;;;;;2.95;1.75;;;;;;;2.67;50.44;90700.03;5080581;28;20095;-67
2022/01/30 09:21:33;;;;;;;5.93;1.95;;;;;;;2.55;50.86;90689.06;5078512;28;20111;-67
2022/01/30 09:23:59;;;;;;;3.95;2.13;;;;;;;2.25;52.10;90703.00;5070765;28;20104;-67
2022/01/30 09:26:24;;;;;;;4.40;2.50;;;;;;;2.18;52.31;90699.84;5073484;28;20060;-67
2022/01/30 09:28:50;;;;;;;1.65;1.55;;;;;;;2.10;50.43;90707.22;5089986;28;20055;-67
2022/01/30 09:31:15;;;;;;;1.73;1.63;;;;;;;2.19;50.73;90696.19;5090709;28;20032;-66
2022/01/30 09:33:41;;;;;;;2.35;1.67;;;;;;;5.64;44.52;90688.53;5071846;28;20024;-68
2022/01/30 09:36:07;;;;;;;5.63;2.38;;;;;;;7.20;42.92;90694.28;5070490;28;20032;-68
2022/01/30 09:38:33;;;;;;;2.28;2.00;;;;;;;9.59;40.00;90707.38;5070921;28;20054;-67
2022/01/30 09:40:59;;;;;;;2.20;1.60;;;;;;;10.01;38.33;90701.69;5070469;28;20028;-66
2022/01/30 09:43:27;;;;;;;1.65;1.55;;;;;;;11.26;37.20;90702.63;5070086;28;20036;-68
2022/01/30 09:45:53;;;;;;;3.22;2.13;;;;;;;10.19;34.79;90696.09;5070673;28;20028;-68
2022/01/30 09:48:19;;;;;;;6.30;5.03;;;;;;;9.51;36.53;90702.81;5070646;28;20517;-69
2022/01/30 09:50:46;;;;;;;11.85;1.92;;;;;;;12.42;34.52;90699.56;5070493;28;20115;-69
2022/01/30 09:53:12;;;;;;;3.78;1.70;;;;;;;13.27;31.17;90712.56;5070413;28;20117;-68
2022/01/30 09:55:37;;;;;;;4.30;1.98;;;;;;;15.18;29.33;90687.50;5070449;28;20062;-68
2022/01/30 09:58:04;;;;;;;4.82;1.70;;;;;;;15.01;29.60;90701.97;5069999;28;20043;-68
2022/01/30 10:00:30;;;;;;;3.33;1.77;;;;;;;13.06;31.21;90694.66;5070411;28;20041;-68
2022/01/30 10:02:55;;;;;;;4.03;2.08;;;;;;;12.14;30.94;90672.59;5070245;28;20120;-68
2022/01/30 10:05:21;;;;;;;4.53;2.85;;;;;;;11.71;31.67;90662.97;5070210;28;20048;-68
2022/01/30 10:07:51;;;;;;;4.53;3.17;;;;;;;10.50;35.62;90669.38;5070404;28;20025;-67
2022/01/30 10:10:18;;;;;;;6.03;3.40;;;;;;;11.72;35.07;90663.75;5070280;28;20035;-67
2022/01/30 10:13:06;;;;;;;3.40;1.98;;;;;;;13.70;32.41;90647.94;5069950;28;20032;-68
2022/01/30 10:15:48;;;;;;;10.82;4.60;;;;;;;16.79;29.76;90628.50;5070286;28;20028;-69
2022/01/30 10:18:14;;;;;;;7.93;5.20;;;;;;;18.05;28.66;90614.25;5070543;28;20032;-69
2022/01/30 10:20:40;;;;;;;8.70;5.35;;;;;;;19.92;27.92;90610.75;5072594;28;20505;-69
2022/01/30 10:23:09;;;;;;;9.00;2.55;;;;;;;15.75;32.23;90600.47;5073738;28;20483;-68
2022/01/30 10:25:47;;;;;;;6.05;2.95;;;;;;;18.30;30.26;90584.97;5072471;28;20402;-67
2022/01/30 10:28:16;;;;;;;3.65;2.20;;;;;;;18.62;30.39;90593.53;5073353;28;20024;-70
2022/01/30 10:30:51;;;;;;;3.00;1.80;;;;;;;17.69;32.06;90587.91;5073912;28;20111;-70
2022/01/30 10:33:22;;;;;;;2.78;2.47;;;;;;;20.40;29.04;90564.81;5073577;28;20095;-71
2022/01/30 10:35:54;;;;;;;1.50;1.40;;;;;;;19.62;29.36;90565.00;5073590;28;20036;-70
2022/01/30 10:38:34;;;;;;;7.05;4.25;;;;;;;19.99;28.35;90552.19;5073677;28;20024;-70
2022/01/30 10:41:22;;;;;;;5.10;2.30;;;;;;;19.12;28.34;90551.78;5073677;28;20032;-71
2022/01/30 10:43:57;;;;;;;3.72;1.92;;;;;;;13.27;34.44;90554.97;5073449;28;20055;-70
2022/01/30 10:46:32;;;;;;;5.15;3.13;;;;;;;10.75;38.80;90560.59;5080943;28;20020;-69
2022/01/30 10:49:03;;;;;;;7.35;4.13;;;;;;;10.77;40.23;90558.41;5093146;28;20583;-68
2022/01/30 10:51:30;;;;;;;5.68;3.80;;;;;;;9.13;42.92;90561.84;5093324;28;20028;-68
2022/01/30 10:53:57;;;;;;;3.97;3.25;;;;;;;8.37;45.83;90555.94;5093066;28;20024;-69
2022/01/30 10:56:27;;;;;;;1.73;1.63;;;;;;;9.32;45.00;90558.94;5093356;28;20508;-69
2022/01/30 10:59:21;;;;;;;3.20;1.70;;;;;;;11.86;40.26;90553.16;5092727;28;20024;-68
2022/01/30 11:01:51;;;;;;;1.45;1.35;;;;;;;14.11;37.29;90536.47;5092558;28;20016;-68
2022/01/30 11:04:21;;;;;;;2.33;1.90;;;;;;;14.07;37.49;90534.47;5093300;28;20487;-67
2022/01/30 11:06:46;;;;;;;2.20;1.55;;;;;;;13.71;35.97;90539.88;5093102;28;20044;-68
2022/01/30 11:09:17;;;;;;;3.58;2.25;;;;;;;12.56;38.13;90556.78;5092598;28;20035;-67
2022/01/30 11:11:50;;;;;;;5.35;4.82;;;;;;;13.39;37.48;90554.94;5093023;28;20028;-68
2022/01/30 11:14:19;;;;;;;;;;;;;;;12.15;39.56;90546.97;5092701;28;20024;-67
2022/01/30 11:19:22;;;;;;;2.65;2.13;;;;;;;11.64;42.26;90535.56;5092868;28;20126;-68
2022/01/30 11:21:49;;;;;;;1.92;1.50;;;;;;;11.27;42.59;90539.09;5092877;28;20025;-68
2022/01/30 11:24:16;;;;;;;3.28;1.30;;;;;;;10.41;43.19;90538.34;5092373;28;20028;-69
2022/01/30 11:26:43;;;;;;;2.75;1.60;;;;;;;9.63;45.00;90539.47;5092648;28;20448;-69
2022/01/30 11:29:14;;;;;;;3.38;2.05;;;;;;;8.36;48.17;90546.38;5092238;28;20544;-69
2022/01/30 11:31:41;;;;;;;3.47;2.85;;;;;;;7.60;48.49;90550.84;5091895;28;20032;-69
2022/01/30 11:34:07;;;;;;;5.07;3.58;;;;;;;7.95;48.42;90546.59;5089491;28;20032;-69
2022/01/30 11:36:41;;;;;;;2.00;1.60;;;;;;;9.84;44.85;90530.53;5092563;28;20024;-69
2022/01/30 11:39:12;;;;;;;1.70;1.60;;;;;;;10.20;44.49;90526.75;5092405;28;20036;-70
2022/01/30 11:41:38;;;;;;;3.05;1.98;;;;;;;9.53;45.66;90524.59;5092262;28;20564;-69
2022/01/30 11:44:19;;;;;;;2.60;2.10;;;;;;;9.71;46.83;90509.44;5091887;28;20036;-70
2022/01/30 11:46:57;;;;;;;3.05;1.73;;;;;;;12.49;41.53;90513.09;5092348;28;20421;-70
2022/01/30 11:49:36;;;;;;;1.60;1.50;;;;;;;14.03;38.57;90495.34;5089234;28;20024;-68
2022/01/30 11:52:02;;;;;;;3.88;2.15;;;;;;;14.00;38.74;90491.47;5071976;28;20452;-68
2022/01/30 11:54:38;;;;;;;2.38;2.13;;;;;;;13.70;38.15;90488.31;5072075;28;20058;-69
2022/01/30 11:57:29;;;;;;;3.70;2.60;;;;;;;11.78;40.16;90479.34;5071740;28;20086;-69
2022/01/30 11:59:57;;;;;;;2.83;1.88;;;;;;;9.67;44.65;90474.78;5071918;28;20067;-69
2022/01/30 12:02:23;;;;;;;5.75;4.10;;;;;;;8.50;47.20;90470.22;5071644;28;20494;-70
2022/01/30 12:04:59;;;;;;;1.45;1.35;;;;;;;7.63;48.78;90481.44;5071542;28;20527;-70
2022/01/30 12:07:35;;;;;;;14.40;8.13;;;;;;;6.83;51.00;90478.44;5071949;28;20116;-70
2022/01/30 12:10:16;;;;;;;4.13;3.22;;;;;;;6.68;52.60;90484.03;5071830;28;20469;-70
2022/01/30 12:13:02;;;;;;;5.13;3.80;;;;;;;6.64;52.03;90480.44;5071161;28;20028;-70
2022/01/30 12:15:42;;;;;;;2.08;1.88;;;;;;;6.52;52.34;90485.41;5071666;28;20060;-70
2022/01/30 12:18:15;;;;;;;2.10;1.80;;;;;;;6.22;52.58;90476.22;5071606;28;20043;-69
2022/01/30 12:21:04;;;;;;;3.63;3.08;;;;;;;6.38;53.11;90469.56;5072694;28;20398;-68
2022/01/30 12:23:36;;;;;;;2.78;2.22;;;;;;;6.26;53.32;90462.13;5083675;28;20458;-67
2022/01/30 12:26:14;;;;;;;3.60;2.17;;;;;;;6.24;52.58;90469.56;5078155;28;20456;-66
2022/01/30 12:28:48;;;;;;;2.17;1.90;;;;;;;6.24;53.35;90476.69;5081366;28;20028;-65
2022/01/30 12:31:34;;;;;;;3.25;2.35;;;;;;;5.92;54.50;90470.41;5091578;28;20050;-65
2022/01/30 12:34:15;;;;;;;1.65;1.50;;;;;;;5.65;56.02;90472.94;5085828;28;20082;-66